Orangeville, Indiana
Current Conditions -  °F | °C
As of 7:53 AM on Saturday 22 Nov 2014 (Local Time) from KBMG Reporting Station
Overcast Overcast  
Wind Chill: 33°   Ceiling: 6000
Heat Index: 39°   Visibility: 10mi
Dew Point: 35°   Wind: 8mph
Humidity: 86%   Direction: 150°SSE
Pressure: 30.21"   Gusts: NA
Location:  38.6433°N, 86.4481°W
Report Text: KBMG 221253Z 15007KT 10SM OVC060 04/02 A3021 RMK AO2 SLP235 T00390017
Loading
Personal Weather Stations






























Interactive Weather Map New forecast layout! Learn more

10-Day Weather Forecast

Advertisements
Track Severe Weather on mobile